Terminal Aerodrome Forecast
Issued by NWS Cleveland, OH

Home | Current Version | Previous Version | Graphics & Text | Print | Product List | Glossary On
Versions: 1 2 3 4 5 6 7 8 9 10 11 12 13 14 15 16 17 18 19
202
FTUS41 KCLE 281726
TAFYNG
TAF
KYNG 281726Z 2818/2918 06012KT 5SM -RA BR SCT008 OVC015
     FM282100 04008KT P6SM BKN008 OVC012
     FM290400 02008KT 2SM -DZ BR OVC003
     FM291500 35006KT P6SM OVC006=

USA.gov is the U.S. government's official web portal to all federal, state and local government web resources and services.